createdAt,value
2019-04-01T00:01:07.628Z,1.23
2019-04-01T00:03:36.312Z,1.20
2019-04-01T00:06:03.157Z,1.10
2019-04-01T00:08:30.558Z,1.20
2019-04-01T00:10:57.654Z,0.90
2019-04-01T00:13:24.500Z,1.20
2019-04-01T00:15:51.104Z,1.40
2019-04-01T00:18:18.322Z,1.90
2019-04-01T00:20:45.232Z,1.67
2019-04-01T00:23:12.156Z,1.60
2019-04-01T00:25:39.644Z,1.43
2019-04-01T00:28:06.358Z,1.37
2019-04-01T00:30:33.001Z,1.40
2019-04-01T00:33:00.905Z,1.90
2019-04-01T00:35:27.792Z,1.50
2019-04-01T00:37:55.257Z,1.53
2019-04-01T00:40:23.211Z,1.67
2019-04-01T00:43:12.499Z,1.80
2019-04-01T00:45:40.892Z,1.67
2019-04-01T00:48:07.472Z,1.40
2019-04-01T00:50:34.248Z,1.50
2019-04-01T00:53:02.154Z,1.60
2019-04-01T00:55:30.010Z,1.53
2019-04-01T00:58:00.189Z,1.90
2019-04-01T01:00:27.122Z,1.87
2019-04-01T01:02:54.065Z,1.47
2019-04-01T01:05:20.970Z,1.53
2019-04-01T01:07:47.945Z,1.70
2019-04-01T01:10:15.300Z,1.07
2019-04-01T01:12:42.089Z,1.40
2019-04-01T01:15:08.975Z,1.50
2019-04-01T01:17:36.858Z,1.50
2019-04-01T01:20:03.957Z,1.73
2019-04-01T01:22:30.658Z,3.80
2019-04-01T01:24:57.318Z,1.73
2019-04-01T01:27:25.642Z,1.67
2019-04-01T01:29:52.325Z,1.40
2019-04-01T01:32:19.294Z,1.50
2019-04-01T01:34:46.033Z,1.60
2019-04-01T01:37:12.815Z,1.37
2019-04-01T01:39:40.343Z,1.60
2019-04-01T01:42:07.018Z,1.90
2019-04-01T01:44:34.383Z,1.30
2019-04-01T01:47:02.062Z,1.70
2019-04-01T01:49:28.874Z,1.77
2019-04-01T01:51:56.476Z,1.70
2019-04-01T01:54:23.080Z,1.50
2019-04-01T01:56:49.732Z,1.53
2019-04-01T01:59:16.633Z,1.40
2019-04-01T02:01:43.581Z,1.53
2019-04-01T02:04:10.333Z,1.30
2019-04-01T02:06:37.642Z,1.30
2019-04-01T02:09:04.924Z,1.27
2019-04-01T02:11:32.142Z,1.77
2019-04-01T02:13:59.078Z,1.60
2019-04-01T02:16:25.703Z,1.50
2019-04-01T02:18:52.333Z,1.37
2019-04-01T02:21:18.987Z,1.80
2019-04-01T02:23:46.171Z,1.47
2019-04-01T02:26:13.065Z,1.37
2019-04-01T02:28:40.253Z,1.50
2019-04-01T02:31:06.864Z,1.40
2019-04-01T02:33:34.147Z,1.70
2019-04-01T02:36:00.998Z,1.60
2019-04-01T02:38:28.260Z,1.77
2019-04-01T02:40:58.331Z,1.50
2019-04-01T02:43:24.965Z,1.43
2019-04-01T02:45:51.787Z,1.50
2019-04-01T02:48:18.953Z,1.50
2019-04-01T02:50:45.729Z,1.60
2019-04-01T02:53:13.011Z,1.53
2019-04-01T02:55:41.625Z,1.60
2019-04-01T02:58:09.072Z,1.60
2019-04-01T03:00:35.754Z,1.90
2019-04-01T03:03:02.612Z,1.77
2019-04-01T03:05:30.321Z,1.57
2019-04-01T03:07:57.124Z,1.80
2019-04-01T03:10:23.917Z,1.80
2019-04-01T03:12:50.590Z,1.63
2019-04-01T03:15:17.627Z,1.57
2019-04-01T03:17:44.946Z,2.00
2019-04-01T03:20:11.664Z,1.93
2019-04-01T03:22:38.367Z,1.87
2019-04-01T03:25:05.270Z,2.30
2019-04-01T03:27:33.360Z,1.60
2019-04-01T03:30:01.367Z,1.57
2019-04-01T03:32:28.946Z,1.70
2019-04-01T03:34:55.733Z,1.53
2019-04-01T03:37:23.207Z,1.67
2019-04-01T03:39:50.084Z,1.37
2019-04-01T03:42:17.063Z,1.50
2019-04-01T03:44:43.662Z,1.83
2019-04-01T03:47:11.438Z,1.93
2019-04-01T03:49:38.875Z,1.83
2019-04-01T03:52:10.350Z,2.03
2019-04-01T03:54:37.374Z,2.47
2019-04-01T03:57:03.967Z,3.42
2019-04-01T03:59:30.669Z,3.30
2019-04-01T04:01:57.310Z,3.07
2019-04-01T04:04:24.375Z,3.07
2019-04-01T04:06:51.660Z,2.57
2019-04-01T04:09:18.732Z,2.40
2019-04-01T04:11:45.580Z,1.93
2019-04-01T04:14:12.879Z,2.17
2019-04-01T04:16:40.216Z,3.00
2019-04-01T04:19:07.495Z,3.87
2019-04-01T04:21:34.279Z,2.23
2019-04-01T04:24:00.978Z,2.00
2019-04-01T04:26:28.140Z,2.10
2019-04-01T04:28:54.726Z,1.73
2019-04-01T04:31:21.572Z,1.90
2019-04-01T04:33:49.681Z,1.50
2019-04-01T04:36:16.683Z,1.87
2019-04-01T04:38:44.165Z,1.70
2019-04-01T04:41:10.849Z,1.87
2019-04-01T04:43:37.739Z,1.53
2019-04-01T04:46:04.831Z,1.80
2019-04-01T04:48:31.820Z,2.27
2019-04-01T04:50:58.732Z,2.40
2019-04-01T04:53:25.979Z,1.90
2019-04-01T04:55:52.735Z,1.60
2019-04-01T04:58:19.628Z,1.90
2019-04-01T05:00:46.478Z,2.00
2019-04-01T05:03:13.280Z,1.60
2019-04-01T05:05:40.130Z,2.50
2019-04-01T05:08:08.208Z,2.20
2019-04-01T05:10:35.835Z,1.47
2019-04-01T05:13:03.430Z,2.10
2019-04-01T05:15:30.038Z,2.33
2019-04-01T05:17:56.984Z,1.90
2019-04-01T05:20:23.919Z,2.27
2019-04-01T05:22:50.748Z,1.97
2019-04-01T05:25:18.642Z,1.30
2019-04-01T05:27:45.923Z,1.60
2019-04-01T05:30:13.925Z,1.90
2019-04-01T05:32:42.014Z,1.70
2019-04-01T05:35:09.202Z,1.73
2019-04-01T05:37:36.857Z,1.80
2019-04-01T05:40:04.454Z,2.00
2019-04-01T05:42:32.999Z,1.50
2019-04-01T05:45:00.580Z,1.50
2019-04-01T05:47:35.410Z,1.30
2019-04-01T05:50:03.402Z,1.33
2019-04-01T05:52:30.868Z,1.60
2019-04-01T05:54:58.261Z,1.90
2019-04-01T05:57:25.260Z,1.53
2019-04-01T05:59:52.893Z,1.50
2019-04-01T06:02:19.739Z,1.60
2019-04-01T06:04:48.386Z,2.10
2019-04-01T06:07:16.140Z,2.47
2019-04-01T06:09:43.315Z,3.40
2019-04-01T06:12:10.278Z,2.90
2019-04-01T06:14:38.490Z,2.90
2019-04-01T06:17:05.591Z,2.93
2019-04-01T06:19:33.447Z,3.70
2019-04-01T06:22:00.462Z,3.83
2019-04-01T06:24:28.560Z,3.70
2019-04-01T06:26:55.742Z,3.20
2019-04-01T06:29:22.578Z,3.60
2019-04-01T06:31:49.212Z,3.23
2019-04-01T06:34:16.451Z,3.07
2019-04-01T06:36:43.915Z,2.27
2019-04-01T06:39:10.686Z,2.00
2019-04-01T06:41:37.284Z,2.33
2019-04-01T06:44:04.122Z,2.07
2019-04-01T06:46:30.912Z,1.70
2019-04-01T06:48:57.842Z,1.70
2019-04-01T06:51:24.842Z,2.10
2019-04-01T06:53:52.299Z,2.00
2019-04-01T06:56:19.457Z,3.83
2019-04-01T06:58:46.128Z,1.47
2019-04-01T07:01:16.180Z,1.77
2019-04-01T07:03:44.128Z,1.80
2019-04-01T07:06:10.982Z,1.80
2019-04-01T07:08:37.871Z,1.93
2019-04-01T07:11:04.568Z,1.80
2019-04-01T07:13:32.265Z,1.70
2019-04-01T07:16:03.881Z,1.80
2019-04-01T07:18:27.459Z,1.67
2019-04-01T07:20:54.407Z,2.00
2019-04-01T07:23:21.392Z,1.30
2019-04-01T07:25:48.201Z,1.73
2019-04-01T07:28:16.059Z,1.77
2019-04-01T07:30:43.414Z,1.80
2019-04-01T07:33:10.016Z,1.40
2019-04-01T07:35:36.756Z,1.80
2019-04-01T07:38:04.295Z,1.50
2019-04-01T07:40:33.114Z,1.50
2019-04-01T07:43:00.012Z,1.57
2019-04-01T07:45:26.736Z,1.63
2019-04-01T07:47:54.308Z,1.60
2019-04-01T07:50:21.097Z,1.77
2019-04-01T07:52:47.648Z,1.47
2019-04-01T07:55:16.214Z,2.00
2019-04-01T07:57:43.050Z,1.60
2019-04-01T08:00:09.860Z,1.40
2019-04-01T08:02:36.607Z,1.13
2019-04-01T08:05:04.907Z,1.67
2019-04-01T08:07:31.976Z,1.27
2019-04-01T08:09:59.442Z,1.40
2019-04-01T08:12:27.927Z,1.80
2019-04-01T08:14:55.178Z,1.30
2019-04-01T08:17:22.987Z,1.20
2019-04-01T08:19:49.679Z,1.20
2019-04-01T08:22:17.989Z,1.00
2019-04-01T08:24:44.933Z,1.03
2019-04-01T08:27:11.726Z,0.93
2019-04-01T08:29:38.664Z,0.97
2019-04-01T08:32:06.512Z,1.13
2019-04-01T08:34:33.926Z,0.67
2019-04-01T08:37:01.135Z,0.70
2019-04-01T08:39:28.185Z,0.70
2019-04-01T08:41:54.995Z,0.87
2019-04-01T08:44:22.685Z,0.90
2019-04-01T08:46:49.985Z,1.10
2019-04-01T08:49:16.725Z,0.70
2019-04-01T08:51:44.115Z,0.90
2019-04-01T08:54:10.788Z,0.90
2019-04-01T08:56:44.886Z,0.90
2019-04-01T08:59:13.491Z,1.40
2019-04-01T09:01:40.587Z,1.50
2019-04-01T09:04:09.089Z,1.50
2019-04-01T09:06:36.136Z,1.60
2019-04-01T09:09:05.074Z,1.65
2019-04-01T09:11:32.321Z,1.40
2019-04-01T09:14:00.439Z,1.57
2019-04-01T09:16:27.321Z,1.90
2019-04-01T09:18:54.015Z,1.25
2019-04-01T09:21:21.113Z,1.10
2019-04-01T09:23:48.183Z,1.10
2019-04-01T09:26:15.315Z,1.77
2019-04-01T09:28:42.179Z,1.17
2019-04-01T09:31:09.856Z,1.10
2019-04-01T09:33:38.322Z,1.20
2019-04-01T09:36:05.293Z,1.07
2019-04-01T09:38:32.207Z,0.82
2019-04-01T09:40:58.805Z,1.12
2019-04-01T09:43:25.523Z,0.72
2019-04-01T09:45:52.254Z,1.10
2019-04-01T09:48:19.684Z,0.72
2019-04-01T09:50:46.364Z,0.72
2019-04-01T09:53:13.174Z,0.70
2019-04-01T09:55:40.400Z,0.90
2019-04-01T09:58:07.380Z,0.55
2019-04-01T10:00:34.443Z,0.60
2019-04-01T10:03:02.556Z,0.57
2019-04-01T10:05:29.545Z,0.70
2019-04-01T10:07:56.221Z,0.73
2019-04-01T10:10:23.248Z,0.82
2019-04-01T10:12:50.791Z,1.00
2019-04-01T10:15:19.086Z,0.85
2019-04-01T10:17:46.309Z,1.03
2019-04-01T10:20:14.295Z,1.20
2019-04-01T10:22:41.025Z,1.37
2019-04-01T10:25:07.849Z,1.05
2019-04-01T10:27:34.947Z,0.50
2019-04-01T10:30:01.823Z,0.90
2019-04-01T10:32:29.287Z,0.80
2019-04-01T10:34:57.637Z,1.30
2019-04-01T10:37:24.351Z,1.03
2019-04-01T10:39:51.033Z,1.00
2019-04-01T10:42:19.083Z,1.15
2019-04-01T10:44:47.866Z,0.83
2019-04-01T10:47:14.799Z,1.12
2019-04-01T10:49:42.851Z,1.25
2019-04-01T10:52:09.789Z,0.70
2019-04-01T10:54:36.705Z,0.67
2019-04-01T10:57:03.664Z,0.90
2019-04-01T10:59:30.255Z,0.70
2019-04-01T11:01:56.971Z,1.00
2019-04-01T11:04:23.667Z,0.85
2019-04-01T11:06:52.646Z,1.10
2019-04-01T11:09:20.365Z,0.80
2019-04-01T11:11:47.423Z,0.70
2019-04-01T11:14:14.115Z,0.70
2019-04-01T11:16:40.988Z,1.07
2019-04-01T11:19:07.954Z,0.82
2019-04-01T11:21:34.811Z,0.90
2019-04-01T11:24:02.187Z,0.80
2019-04-01T11:26:30.489Z,1.00
2019-04-01T11:28:57.271Z,1.00
2019-04-01T11:31:24.216Z,0.78
2019-04-01T11:33:51.403Z,2.37
2019-04-01T11:36:19.606Z,0.90
2019-04-01T11:38:46.436Z,0.93
2019-04-01T11:41:13.525Z,1.02
2019-04-01T11:43:40.126Z,1.10
2019-04-01T11:46:07.383Z,1.20
2019-04-01T11:48:34.093Z,1.05
2019-04-01T11:51:01.488Z,0.88
2019-04-01T11:53:28.163Z,1.00
2019-04-01T11:55:55.197Z,1.30
2019-04-01T11:58:22.326Z,1.22
2019-04-01T12:00:49.995Z,0.95
2019-04-01T12:03:17.829Z,0.98
2019-04-01T12:05:45.521Z,1.20
2019-04-01T12:08:13.446Z,1.30
2019-04-01T12:10:40.595Z,0.88
2019-04-01T12:13:08.157Z,0.90
2019-04-01T12:15:35.519Z,0.90
2019-04-01T12:18:03.228Z,0.93
2019-04-01T12:20:30.225Z,1.10
2019-04-01T12:22:57.141Z,0.98
2019-04-01T12:25:25.174Z,0.90
2019-04-01T12:27:51.792Z,0.78
2019-04-01T12:30:19.096Z,1.20
2019-04-01T12:32:46.807Z,1.00
2019-04-01T12:35:13.709Z,1.00
2019-04-01T12:37:40.842Z,1.10
2019-04-01T12:40:08.666Z,1.00
2019-04-01T12:42:35.791Z,0.72
2019-04-01T12:45:03.365Z,0.90
2019-04-01T12:47:30.658Z,1.15
2019-04-01T12:49:57.613Z,1.00
2019-04-01T12:52:24.745Z,1.02
2019-04-01T12:54:51.571Z,1.00
2019-04-01T12:57:18.999Z,1.10
2019-04-01T12:59:46.418Z,0.85
2019-04-01T13:02:13.180Z,0.88
2019-04-01T13:04:42.200Z,1.10
2019-04-01T13:07:09.384Z,0.85
2019-04-01T13:09:36.023Z,0.83
2019-04-01T13:12:03.070Z,0.80
2019-04-01T13:14:30.417Z,1.20
2019-04-01T13:16:58.437Z,0.97
2019-04-01T13:19:27.452Z,0.90
2019-04-01T13:21:55.574Z,1.10
2019-04-01T13:24:22.161Z,0.90
2019-04-01T13:26:50.838Z,0.80
2019-04-01T13:29:17.556Z,0.90
2019-04-01T13:31:44.236Z,1.00
2019-04-01T13:34:12.827Z,1.07
2019-04-01T13:36:40.398Z,1.10
2019-04-01T13:39:07.222Z,1.00
2019-04-01T13:41:42.288Z,1.03
2019-04-01T13:44:03.082Z,1.07
2019-04-01T13:46:30.230Z,1.30
2019-04-01T13:48:59.279Z,1.00
2019-04-01T13:51:26.128Z,0.90
2019-04-01T13:54:07.675Z,1.00
2019-04-01T13:56:21.442Z,1.20
2019-04-01T13:58:49.657Z,1.00
2019-04-01T14:01:16.199Z,1.00
2019-04-01T14:03:43.353Z,1.00
2019-04-01T14:06:10.139Z,0.80
2019-04-01T14:08:37.397Z,1.40
2019-04-01T14:11:05.999Z,0.97
2019-04-01T14:13:32.787Z,0.80
2019-04-01T14:15:59.425Z,1.40
2019-04-01T14:18:26.145Z,1.00
2019-04-01T14:20:52.883Z,0.93
2019-04-01T14:23:23.229Z,1.23
2019-04-01T14:25:48.294Z,1.27
2019-04-01T14:28:15.876Z,1.43
2019-04-01T14:30:42.622Z,1.20
2019-04-01T14:33:10.779Z,0.97
2019-04-01T14:35:44.919Z,0.80
2019-04-01T14:38:10.615Z,0.80
2019-04-01T14:40:37.946Z,0.90
2019-04-01T14:43:05.645Z,0.90
2019-04-01T14:45:34.644Z,0.97
2019-04-01T14:48:02.867Z,1.07
2019-04-01T14:50:31.163Z,1.10
2019-04-01T14:52:58.049Z,1.33
2019-04-01T14:55:24.635Z,0.97
2019-04-01T14:57:51.708Z,1.10
2019-04-01T15:00:20.073Z,0.90
2019-04-01T15:02:47.014Z,1.23
2019-04-01T15:05:15.113Z,0.70
2019-04-01T15:07:53.757Z,0.70
2019-04-01T15:10:22.392Z,1.10
2019-04-01T15:13:04.307Z,0.93
2019-04-01T15:15:20.028Z,0.73
2019-04-01T15:17:47.243Z,0.90
2019-04-01T15:20:16.210Z,0.93
2019-04-01T15:22:42.816Z,0.83
2019-04-01T15:25:09.692Z,0.70
2019-04-01T15:27:36.680Z,0.70
2019-04-01T15:30:04.123Z,0.70
2019-04-01T15:32:31.182Z,1.33
2019-04-01T15:34:59.274Z,0.93
2019-04-01T15:37:26.647Z,0.77
2019-04-01T15:39:53.382Z,0.97
2019-04-01T15:42:19.957Z,0.73
2019-04-01T15:44:46.561Z,0.50
2019-04-01T15:47:16.146Z,0.70
2019-04-01T15:49:42.823Z,0.87
2019-04-01T15:52:11.156Z,0.80
2019-04-01T15:54:38.167Z,0.60
2019-04-01T15:57:05.134Z,0.80
2019-04-01T15:59:32.030Z,0.70
2019-04-01T16:01:59.529Z,0.70
2019-04-01T16:04:28.657Z,0.63
2019-04-01T16:06:55.651Z,0.70
2019-04-01T16:09:23.250Z,0.67
2019-04-01T16:11:50.243Z,1.03
2019-04-01T16:14:19.225Z,0.63
2019-04-01T16:16:46.043Z,0.60
2019-04-01T16:19:12.621Z,0.77
2019-04-01T16:21:39.392Z,0.50
2019-04-01T16:24:06.181Z,0.50
2019-04-01T16:26:34.635Z,0.40
2019-04-01T16:29:02.073Z,0.70
2019-04-01T16:31:29.012Z,0.50
2019-04-01T16:33:55.630Z,0.70
2019-04-01T16:36:22.643Z,0.80
2019-04-01T16:38:50.161Z,0.50
2019-04-01T16:41:17.034Z,1.07
2019-04-01T16:43:43.751Z,0.30
2019-04-01T16:46:12.344Z,0.57
2019-04-01T16:48:39.648Z,0.50
2019-04-01T16:51:06.379Z,0.50
2019-04-01T16:53:33.287Z,0.60
2019-04-01T16:56:00.854Z,0.60
2019-04-01T16:58:27.871Z,0.53
2019-04-01T17:00:55.263Z,0.77
2019-04-01T17:03:21.965Z,0.57
2019-04-01T17:05:49.072Z,0.70
2019-04-01T17:08:16.208Z,0.53
2019-04-01T17:10:43.865Z,0.40
2019-04-01T17:13:10.911Z,0.57
2019-04-01T17:15:39.263Z,0.80
2019-04-01T17:18:06.038Z,0.60
2019-04-01T17:20:32.795Z,0.53
2019-04-01T17:23:01.085Z,0.40
2019-04-01T17:25:29.174Z,0.67
2019-04-01T17:27:55.751Z,0.57
2019-04-01T17:30:22.966Z,0.70
2019-04-01T17:32:50.030Z,0.67
2019-04-01T17:35:17.283Z,0.80
2019-04-01T17:37:44.045Z,1.20
2019-04-01T17:40:12.361Z,3.80
2019-04-01T17:42:40.963Z,5.90
2019-04-01T17:45:32.413Z,1.87
2019-04-01T17:48:00.633Z,1.80
2019-04-01T17:50:29.141Z,1.70
2019-04-01T17:52:56.584Z,2.27
2019-04-01T17:55:24.594Z,3.13
2019-04-01T17:57:51.456Z,2.87
2019-04-01T18:00:21.628Z,1.80
2019-04-01T18:02:49.275Z,2.07
2019-04-01T18:05:16.094Z,2.83
2019-04-01T18:07:43.731Z,2.07
2019-04-01T18:10:12.135Z,2.17
2019-04-01T18:12:38.860Z,1.87
2019-04-01T18:15:05.577Z,2.17
2019-04-01T18:17:32.352Z,1.80
2019-04-01T18:20:00.851Z,1.73
2019-04-01T18:22:29.115Z,1.40
2019-04-01T18:28:22.152Z,3.07
2019-04-01T18:30:48.744Z,3.63
2019-04-01T18:33:15.329Z,4.07
2019-04-01T18:35:44.764Z,3.30
2019-04-01T18:38:11.007Z,4.30
2019-04-01T18:40:38.401Z,1.97
2019-04-01T18:43:05.459Z,2.00
2019-04-01T18:45:32.243Z,1.83
2019-04-01T18:47:59.245Z,1.43
2019-04-01T18:50:25.957Z,1.53
2019-04-01T18:52:52.615Z,1.40
2019-04-01T18:55:19.381Z,1.50
2019-04-01T18:57:46.029Z,1.50
2019-04-01T19:00:13.413Z,1.83
2019-04-01T19:02:40.160Z,1.60
2019-04-01T19:05:06.957Z,1.33
2019-04-01T19:07:35.314Z,1.40
2019-04-01T19:10:06.424Z,1.30
2019-04-01T19:12:30.969Z,1.53
2019-04-01T19:14:57.713Z,1.73
2019-04-01T19:17:24.330Z,1.20
2019-04-01T19:19:52.801Z,1.37
2019-04-01T19:22:19.716Z,1.47
2019-04-01T19:24:46.747Z,1.83
2019-04-01T19:27:13.468Z,1.93
2019-04-01T19:29:42.929Z,1.83
2019-04-01T19:32:09.544Z,1.73
2019-04-01T19:34:36.802Z,2.07
2019-04-01T19:37:03.981Z,1.87
2019-04-01T19:39:30.723Z,1.70
2019-04-01T19:41:57.875Z,2.00
2019-04-01T19:44:24.447Z,1.70
2019-04-01T19:46:51.276Z,1.70
2019-04-01T19:49:18.178Z,1.60
2019-04-01T19:51:44.797Z,1.70
2019-04-01T19:54:12.606Z,1.17
2019-04-01T19:56:39.231Z,1.40
2019-04-01T19:59:05.827Z,1.40
2019-04-01T20:01:33.915Z,1.13
2019-04-01T20:04:00.582Z,1.27
2019-04-01T20:06:27.207Z,1.20
2019-04-01T20:08:53.806Z,1.10
2019-04-01T20:11:20.502Z,1.30
2019-04-01T20:13:48.479Z,1.17
2019-04-01T20:16:15.579Z,0.90
2019-04-01T20:18:42.192Z,1.17
2019-04-01T20:21:08.851Z,1.17
2019-04-01T20:23:36.343Z,1.57
2019-04-01T20:26:03.428Z,1.43
2019-04-01T20:28:30.354Z,1.77
2019-04-01T20:30:57.521Z,1.43
2019-04-01T20:33:25.194Z,1.13
2019-04-01T20:35:52.144Z,1.67
2019-04-01T20:38:19.017Z,1.53
2019-04-01T20:40:45.695Z,1.03
2019-04-01T20:43:12.457Z,1.50
2019-04-01T20:45:39.202Z,1.33
2019-04-01T20:48:06.474Z,1.13
2019-04-01T20:50:33.640Z,1.10
2019-04-01T20:53:00.315Z,0.70
2019-04-01T20:55:27.001Z,0.70
2019-04-01T20:57:54.016Z,1.00
2019-04-01T21:00:20.623Z,0.70
2019-04-01T21:02:47.224Z,0.90
2019-04-01T21:05:14.433Z,0.70
2019-04-01T21:07:42.003Z,1.10
2019-04-01T21:10:09.150Z,0.80
2019-04-01T21:12:37.264Z,0.90
2019-04-01T21:15:04.761Z,0.90
2019-04-01T21:17:32.079Z,1.07
2019-04-01T21:19:59.109Z,0.80
2019-04-01T21:22:25.996Z,0.53
2019-04-01T21:24:52.735Z,0.57
2019-04-01T21:27:19.477Z,0.90
2019-04-01T21:29:47.025Z,0.63
2019-04-01T21:32:13.929Z,0.80
2019-04-01T21:34:41.149Z,0.80
2019-04-01T21:37:08.347Z,0.80
2019-04-01T21:39:37.736Z,0.80
2019-04-01T21:42:04.170Z,0.90
2019-04-01T21:44:31.066Z,0.83
2019-04-01T21:46:57.723Z,0.77
2019-04-01T21:49:24.850Z,0.80
2019-04-01T21:51:51.705Z,0.60
2019-04-01T21:54:18.866Z,1.30
2019-04-01T21:56:45.439Z,0.50
2019-04-01T21:59:12.620Z,0.60
2019-04-01T22:01:40.685Z,0.90
2019-04-01T22:04:08.376Z,0.70
2019-04-01T22:06:34.984Z,0.63
2019-04-01T22:09:06.597Z,0.90
2019-04-01T22:11:34.366Z,0.90
2019-04-01T22:14:01.079Z,0.90
2019-04-01T22:16:27.974Z,0.80
2019-04-01T22:18:54.566Z,0.83
2019-04-01T22:21:21.310Z,1.00
2019-04-01T22:23:48.303Z,0.90
2019-04-01T22:26:15.722Z,0.90
2019-04-01T22:28:42.853Z,0.93
2019-04-01T22:31:09.621Z,1.00
2019-04-01T22:33:37.204Z,0.90
2019-04-01T22:36:04.236Z,0.80
2019-04-01T22:38:31.157Z,0.90
2019-04-01T22:40:57.854Z,1.00
2019-04-01T22:43:25.383Z,0.60
2019-04-01T22:45:52.411Z,1.30
2019-04-01T22:48:19.088Z,1.07
2019-04-01T22:50:46.070Z,1.10
2019-04-01T22:53:13.065Z,0.83
2019-04-01T22:55:40.679Z,0.83
2019-04-01T22:58:07.275Z,0.90
2019-04-01T23:00:34.293Z,1.10
2019-04-01T23:03:01.171Z,0.70
2019-04-01T23:05:27.811Z,0.83
2019-04-01T23:07:54.495Z,1.23
2019-04-01T23:10:21.173Z,1.20
2019-04-01T23:12:48.221Z,0.97
2019-04-01T23:15:15.773Z,1.10
2019-04-01T23:17:42.604Z,0.80
2019-04-01T23:20:09.613Z,1.33
2019-04-01T23:22:36.262Z,1.20
2019-04-01T23:25:03.742Z,1.13
2019-04-01T23:27:31.506Z,0.80
2019-04-01T23:29:58.070Z,1.00
2019-04-01T23:32:25.625Z,1.10
2019-04-01T23:34:52.737Z,1.20
2019-04-01T23:37:19.470Z,0.97
2019-04-01T23:39:46.113Z,1.00
2019-04-01T23:42:13.480Z,0.90
2019-04-01T23:44:40.957Z,1.07
2019-04-01T23:47:09.815Z,1.10
2019-04-01T23:49:37.326Z,1.23
2019-04-01T23:52:05.914Z,1.17
2019-04-01T23:54:32.929Z,1.00
2019-04-01T23:56:59.858Z,1.30
2019-04-01T23:59:26.592Z,1.23
